Time;durP1;ratioP1;P1;durP2;ratioP2;P2;SDS_P1;SDS_P2;PMS_P1;PMS_P2;Temp;Humidity;BMP_temperature;BMP_pressure;BME280_temperature;BME280_humidity;BME280_pressure;Samples;Min_cycle;Max_cycle;Signal;HPM_P1;HPM_P2
2021/01/04 00:01:24;;;;;;;33.30;19.10;;;5.00;15.80;;;;;;4932373;29;20530;-64
2021/01/04 00:04:08;;;;;;;28.40;19.10;;;4.90;13.20;;;;;;4932947;29;20451;-64
2021/01/04 00:07:01;;;;;;;27.87;17.73;;;4.80;9.30;;;;;;4930447;29;20502;-62
2021/01/04 00:10:04;;;;;;;33.00;18.20;;;4.80;8.30;;;;;;4932205;29;20435;-64
2021/01/04 00:12:40;;;;;;;27.40;17.10;;;4.70;12.70;;;;;;4931532;29;20591;-65
2021/01/04 00:15:29;;;;;;;29.17;19.47;;;4.70;18.00;;;;;;4932619;29;20467;-65
2021/01/04 00:18:22;;;;;;;29.13;19.30;;;4.80;18.90;;;;;;4933387;29;20480;-64
2021/01/04 00:20:47;;;;;;;31.30;17.43;;;4.90;21.00;;;;;;4931250;29;20451;-65
2021/01/04 00:23:45;;;;;;;28.40;18.50;;;5.00;18.50;;;;;;4933296;29;20814;-65
2021/01/04 00:26:38;;;;;;;30.10;18.30;;;5.10;15.30;;;;;;4932457;29;20607;-62
2021/01/04 00:29:05;;;;;;;32.10;19.77;;;5.30;12.50;;;;;;4926454;29;20871;-64
2021/01/04 00:31:37;;;;;;;41.30;20.67;;;5.30;2.50;;;;;;4933261;29;20486;-63
2021/01/04 00:34:12;;;;;;;33.30;21.60;;;5.20;2.10;;;;;;4931030;29;20985;-64
2021/01/04 00:36:45;;;;;;;34.70;19.13;;;5.30;5.60;;;;;;4930697;29;21369;-65
2021/01/04 00:39:42;;;;;;;34.90;20.07;;;5.30;5.80;;;;;;4933340;29;20857;-64
2021/01/04 00:42:13;;;;;;;31.43;19.50;;;5.20;1.00;;;;;;4932917;29;20428;-63
2021/01/04 00:44:50;;;;;;;34.07;19.63;;;5.20;2.80;;;;;;4932838;29;20450;-63
2021/01/04 00:47:27;;;;;;;31.43;19.67;;;5.10;4.90;;;;;;4962992;28;20442;-64
2021/01/04 00:50:02;;;;;;;35.53;20.33;;;5.20;6.70;;;;;;4931088;29;20447;-63
2021/01/04 00:53:00;;;;;;;30.97;19.57;;;5.30;6.80;;;;;;4932808;29;20467;-64
2021/01/04 00:55:53;;;;;;;32.37;19.27;;;5.30;7.20;;;;;;4930481;29;20989;-65
2021/01/04 00:58:48;;;;;;;36.87;20.90;;;5.30;7.20;;;;;;4931151;29;20510;-65
2021/01/04 01:01:29;;;;;;;34.63;19.20;;;5.30;2.00;;;;;;4931802;29;20483;-63
2021/01/04 01:04:14;;;;;;;33.23;19.13;;;5.30;1.90;;;;;;4932478;29;20945;-64
2021/01/04 01:07:09;;;;;;;31.40;19.47;;;5.30;1.00;;;;;;4930132;29;20459;-62
2021/01/04 01:09:39;;;;;;;35.13;22.20;;;5.20;1.00;;;;;;4930017;29;20561;-61
2021/01/04 01:12:14;;;;;;;35.70;19.00;;;5.00;1.00;;;;;;4931896;29;20574;-63
2021/01/04 01:14:56;;;;;;;31.10;18.73;;;5.00;9.80;;;;;;4931192;29;20514;-64
2021/01/04 01:17:54;;;;;;;34.73;18.13;;;5.10;11.00;;;;;;4932693;29;20460;-62
2021/01/04 01:20:22;;;;;;;29.23;19.77;;;5.20;9.60;;;;;;4931956;29;20937;-61
2021/01/04 01:22:48;;;;;;;30.63;19.27;;;5.40;5.70;;;;;;4930639;29;20458;-62
2021/01/04 01:25:24;;;;;;;33.07;19.57;;;5.30;1.00;;;;;;4929000;29;20452;-62
2021/01/04 01:28:11;;;;;;;37.07;19.77;;;5.30;1.00;;;;;;4963318;28;20451;-62
2021/01/04 01:31:04;;;;;;;37.27;19.40;;;5.30;1.00;;;;;;4931437;29;21173;-63
2021/01/04 01:34:07;;;;;;;37.47;20.93;;;5.40;1.00;;;;;;4931537;29;21028;-62
2021/01/04 01:37:08;;;;;;;39.73;21.33;;;5.40;1.00;;;;;;4931248;29;20443;-63
2021/01/04 01:40:02;;;;;;;35.47;19.43;;;5.50;1.00;;;;;;4932084;29;20824;-63
2021/01/04 01:42:50;;;;;;;31.93;19.60;;;5.50;1.00;;;;;;4932265;29;20452;-62
2021/01/04 01:45:24;;;;;;;33.77;18.70;;;5.50;1.00;;;;;;4931781;29;20853;-63
2021/01/04 01:48:21;;;;;;;34.77;19.30;;;5.50;1.00;;;;;;4930961;29;20454;-63
2021/01/04 01:50:59;;;;;;;29.73;17.97;;;5.40;1.00;;;;;;4933310;29;20475;-64
2021/01/04 01:53:54;;;;;;;31.53;19.13;;;5.40;1.00;;;;;;4935648;29;20463;-64
2021/01/04 01:56:25;;;;;;;40.93;20.60;;;5.30;1.00;;;;;;4934798;29;20518;-63
2021/01/04 01:59:05;;;;;;;31.40;18.47;;;5.20;1.00;;;;;;4933464;29;20444;-64
2021/01/04 02:01:46;;;;;;;33.97;19.80;;;5.20;1.00;;;;;;4935271;29;20455;-64
2021/01/04 02:04:46;;;;;;;37.57;21.20;;;5.00;1.00;;;;;;4935528;29;21013;-64
2021/01/04 02:07:25;;;;;;;37.30;19.90;;;5.10;4.80;;;;;;4933228;29;20921;-63
2021/01/04 02:09:55;;;;;;;33.40;19.53;;;5.00;2.00;;;;;;4934875;29;20455;-63
2021/01/04 02:12:48;;;;;;;36.60;20.00;;;5.00;3.00;;;;;;4934552;29;20984;-63
2021/01/04 02:15:21;;;;;;;31.70;18.47;;;4.80;9.30;;;;;;4933744;29;21043;-62
2021/01/04 02:18:08;;;;;;;34.60;20.27;;;4.80;13.50;;;;;;4935230;29;20432;-62
2021/01/04 02:20:52;;;;;;;33.77;18.10;;;4.70;13.60;;;;;;4931803;29;20543;-62
2021/01/04 02:23:39;;;;;;;37.50;20.50;;;4.70;18.10;;;;;;4934403;29;20448;-62
2021/01/04 02:26:15;;;;;;;32.43;18.27;;;4.70;20.30;;;;;;4934550;29;20455;-62
2021/01/04 02:29:05;;;;;;;35.80;20.70;;;4.70;18.30;;;;;;4934915;29;20435;-65
2021/01/04 02:31:34;;;;;;;36.00;19.43;;;4.60;17.80;;;;;;4918549;29;20737;-65
2021/01/04 02:34:01;;;;;;;30.90;18.10;;;4.60;18.00;;;;;;4932238;29;20554;-66
2021/01/04 02:36:30;;;;;;;35.67;20.27;;;4.50;22.00;;;;;;4935110;29;20446;-63
2021/01/04 02:39:12;;;;;;;34.43;19.77;;;4.50;49.80;;;;;;4929188;29;20448;-62
2021/01/04 02:42:20;;;;;;;37.23;20.20;;;4.50;80.50;;;;;;4933117;29;20455;-62
2021/01/04 02:44:47;;;;;;;35.67;21.40;;;4.50;84.90;;;;;;4933552;29;20503;-62
2021/01/04 02:47:51;;;;;;;36.83;19.80;;;4.60;91.30;;;;;;4934884;29;20448;-63
2021/01/04 02:50:44;;;;;;;37.47;20.30;;;4.50;98.70;;;;;;4930928;29;20849;-62
2021/01/04 02:53:45;;;;;;;41.57;21.93;;;4.60;99.90;;;;;;4933796;29;20468;-65
2021/01/04 02:56:19;;;;;;;42.60;22.10;;;4.70;99.90;;;;;;4933889;29;20451;-63
2021/01/04 02:59:03;;;;;;;34.53;20.77;;;4.80;99.90;;;;;;4933580;29;20456;-63
2021/01/04 03:01:56;;;;;;;36.43;21.57;;;4.90;99.90;;;;;;4934135;29;20515;-62
2021/01/04 03:04:24;;;;;;;34.10;19.47;;;5.00;99.90;;;;;;4934189;29;20436;-63
2021/01/04 03:07:14;;;;;;;38.70;21.63;;;5.00;99.90;;;;;;4934453;29;20466;-64
2021/01/04 03:09:45;;;;;;;37.07;21.40;;;5.00;99.90;;;;;;4931118;29;20455;-64
2021/01/04 03:12:32;;;;;;;39.97;20.67;;;5.10;99.90;;;;;;4932262;29;20480;-63
2021/01/04 03:15:21;;;;;;;44.40;21.33;;;5.20;99.90;;;;;;4930853;29;20448;-63
2021/01/04 03:18:06;;;;;;;43.90;23.57;;;5.20;99.90;;;;;;4930865;29;20953;-62
2021/01/04 03:20:31;;;;;;;40.93;22.47;;;6.00;99.90;;;;;;4931120;29;20442;-63
2021/01/04 03:22:57;;;;;;;41.53;21.00;;;5.10;99.90;;;;;;4929657;29;20478;-63
2021/01/04 03:25:43;;;;;;;41.30;22.37;;;5.10;99.90;;;;;;4930887;29;20184;-65
2021/01/04 03:28:24;;;;;;;43.77;22.17;;;5.20;99.90;;;;;;4929344;29;20224;-63
2021/01/04 03:30:50;;;;;;;34.33;20.33;;;5.20;99.90;;;;;;4931368;29;20530;-63
2021/01/04 03:33:16;;;;;;;43.00;22.60;;;5.10;99.90;;;;;;4930845;29;20889;-64
2021/01/04 03:35:42;;;;;;;40.43;20.03;;;4.90;99.90;;;;;;4928849;29;20188;-65
2021/01/04 03:38:07;;;;;;;34.30;20.47;;;4.90;99.90;;;;;;4931957;29;20459;-63
2021/01/04 03:40:33;;;;;;;39.47;22.50;;;;;;;;;;4934006;29;20455;-64
2021/01/04 03:42:59;;;;;;;37.10;21.03;;;5.10;99.90;;;;;;4933370;29;20202;-65
2021/01/04 03:45:24;;;;;;;40.23;22.00;;;5.20;99.90;;;;;;4933517;29;20963;-64
2021/01/04 03:47:50;;;;;;;39.00;22.60;;;5.10;99.90;;;;;;4933399;29;20262;-63
2021/01/04 03:50:16;;;;;;;39.03;24.17;;;5.10;99.90;;;;;;4928953;29;20199;-62
2021/01/04 03:52:45;;;;;;;47.87;22.40;;;5.10;99.90;;;;;;4934197;29;20215;-63
2021/01/04 03:55:11;;;;;;;40.90;22.03;;;5.20;99.90;;;;;;4930523;29;21769;-61
2021/01/04 03:57:37;;;;;;;43.07;23.23;;;5.20;99.90;;;;;;4928239;29;20454;-62
2021/01/04 04:00:08;;;;;;;41.10;22.17;;;5.20;99.90;;;;;;4928491;29;20447;-62
2021/01/04 04:02:34;;;;;;;43.03;23.10;;;5.20;99.90;;;;;;4930836;29;20261;-63
2021/01/04 04:05:00;;;;;;;44.77;22.97;;;5.20;99.90;;;;;;4932176;29;20465;-62
2021/01/04 04:07:26;;;;;;;45.80;21.80;;;5.20;99.90;;;;;;4932238;29;20933;-64
2021/01/04 04:09:52;;;;;;;48.77;24.87;;;5.20;99.90;;;;;;4931357;29;20456;-63
2021/01/04 04:12:17;;;;;;;42.47;23.50;;;5.20;99.90;;;;;;4932425;29;20321;-62
2021/01/04 04:14:47;;;;;;;52.37;25.07;;;5.20;99.90;;;;;;4930936;29;20196;-64
2021/01/04 04:17:13;;;;;;;50.80;24.73;;;5.10;99.90;;;;;;4932724;29;20214;-62
2021/01/04 04:19:38;;;;;;;36.77;22.23;;;5.00;99.90;;;;;;4932115;29;20949;-63
2021/01/04 04:22:04;;;;;;;40.83;22.17;;;4.90;99.90;;;;;;4931569;29;20180;-63
2021/01/04 04:24:30;;;;;;;42.40;20.83;;;5.00;99.90;;;;;;4933133;29;20281;-63
2021/01/04 04:26:55;;;;;;;37.67;22.00;;;4.80;99.90;;;;;;4930081;29;20251;-63
2021/01/04 04:29:21;;;;;;;36.27;20.87;;;4.80;99.90;;;;;;4933905;29;20692;-64
2021/01/04 04:31:49;;;;;;;42.27;24.83;;;4.90;99.90;;;;;;4933018;29;20192;-63
2021/01/04 04:34:15;;;;;;;44.87;23.80;;;5.10;99.90;;;;;;4933439;29;20278;-63
2021/01/04 04:36:42;;;;;;;59.60;27.03;;;5.10;99.90;;;;;;4955735;28;20452;-64
2021/01/04 04:39:11;;;;;;;49.70;24.73;;;5.20;99.90;;;;;;4919789;29;20456;-63
2021/01/04 04:41:44;;;;;;;44.93;22.07;;;5.20;99.90;;;;;;4930693;29;20822;-62
2021/01/04 04:44:30;;;;;;;41.43;21.90;;;5.10;99.90;;;;;;4931460;29;20522;-62
2021/01/04 04:47:07;;;;;;;40.23;23.00;;;4.80;99.90;;;;;;4929204;29;20814;-63
2021/01/04 04:49:57;;;;;;;41.97;21.40;;;4.60;99.90;;;;;;4927361;29;20440;-62
2021/01/04 04:52:49;;;;;;;43.30;22.67;;;4.70;99.90;;;;;;4931942;29;20483;-63
2021/01/04 04:55:38;;;;;;;41.53;22.83;;;4.60;99.90;;;;;;4931141;29;20461;-62
2021/01/04 04:58:22;;;;;;;43.30;22.10;;;4.50;99.90;;;;;;4932894;29;20537;-63
2021/01/04 05:01:15;;;;;;;46.77;24.80;;;4.50;99.90;;;;;;4931215;29;20464;-63
2021/01/04 05:04:02;;;;;;;51.57;24.20;;;4.50;99.90;;;;;;4930657;29;20961;-64
2021/01/04 05:06:45;;;;;;;53.17;23.70;;;4.60;99.90;;;;;;4932778;29;20494;-65
2021/01/04 05:09:19;;;;;;;37.70;20.80;;;4.60;99.90;;;;;;4931687;29;20480;-63
2021/01/04 05:11:59;;;;;;;44.57;22.93;;;4.50;99.90;;;;;;4920832;29;20475;-62
2021/01/04 05:14:28;;;;;;;46.23;22.80;;;4.50;99.90;;;;;;4929794;29;20467;-64
2021/01/04 05:17:09;;;;;;;50.77;25.10;;;4.50;99.90;;;;;;4931348;29;20447;-64
2021/01/04 05:19:58;;;;;;;38.50;22.47;;;4.60;99.90;;;;;;4930047;29;20435;-61
2021/01/04 05:22:42;;;;;;;52.33;24.57;;;4.60;99.90;;;;;;4931375;29;20491;-63
2021/01/04 05:25:42;;;;;;;49.83;24.13;;;4.60;99.90;;;;;;4931726;29;20526;-62
2021/01/04 05:28:29;;;;;;;48.07;25.17;;;4.70;99.90;;;;;;4935924;29;20458;-64
2021/01/04 05:31:30;;;;;;;45.87;23.07;;;4.80;99.90;;;;;;4936180;29;20526;-62
2021/01/04 05:34:01;;;;;;;53.83;25.20;;;4.80;99.90;;;;;;4936027;29;20920;-61
2021/01/04 05:36:52;;;;;;;55.70;26.63;;;4.80;99.90;;;;;;4926128;29;20894;-61
2021/01/04 05:39:55;;;;;;;45.90;25.40;;;4.70;99.90;;;;;;4933295;29;20444;-61
2021/01/04 05:42:33;;;;;;;41.90;21.53;;;4.60;99.90;;;;;;4948149;29;20512;-61
2021/01/04 05:45:10;;;;;;;46.83;24.83;;;4.70;99.90;;;;;;4935829;29;21012;-62
2021/01/04 05:47:43;;;;;;;42.27;24.27;;;4.80;99.90;;;;;;4934242;29;20925;-62
2021/01/04 05:50:35;;;;;;;41.83;23.57;;;4.90;99.90;;;;;;4935488;29;20432;-62
2021/01/04 05:53:00;;;;;;;45.73;23.47;;;5.00;99.90;;;;;;4932719;29;20479;-61
2021/01/04 05:55:26;;;;;;;47.17;22.53;;;5.00;99.90;;;;;;4935623;29;20794;-60
2021/01/04 05:57:54;;;;;;;48.10;24.80;;;5.10;99.90;;;;;;4933369;29;20650;-62
2021/01/04 06:00:34;;;;;;;48.33;25.40;;;5.20;99.90;;;;;;4935285;29;20194;-62
2021/01/04 06:03:13;;;;;;;50.87;22.73;;;5.20;99.90;;;;;;4936135;29;20447;-62
2021/01/04 06:05:39;;;;;;;47.47;23.60;;;5.20;99.90;;;;;;4936186;29;20463;-62
2021/01/04 06:08:18;;;;;;;44.13;24.23;;;5.20;99.90;;;;;;4934385;29;20452;-62
2021/01/04 06:10:44;;;;;;;42.57;23.20;;;5.20;99.90;;;;;;4929846;29;20964;-62
2021/01/04 06:13:19;;;;;;;44.17;23.93;;;5.10;99.90;;;;;;4928794;29;20487;-62
2021/01/04 06:15:47;;;;;;;56.53;30.73;;;5.00;99.90;;;;;;4930846;29;20184;-63
2021/01/04 06:18:19;;;;;;;40.43;22.00;;;5.00;99.90;;;;;;4930081;29;20996;-61
2021/01/04 06:20:44;;;;;;;38.97;22.20;;;5.00;99.90;;;;;;4930689;29;20455;-63
2021/01/04 06:23:31;;;;;;;40.43;22.00;;;4.90;99.90;;;;;;4933444;29;20507;-62
2021/01/04 06:26:03;;;;;;;43.40;22.33;;;4.80;99.90;;;;;;4931781;29;20198;-61
2021/01/04 06:28:29;;;;;;;39.13;22.40;;;4.70;99.90;;;;;;4935141;29;20458;-62
2021/01/04 06:31:07;;;;;;;37.30;21.80;;;4.60;99.90;;;;;;4934891;29;20969;-62
2021/01/04 06:33:33;;;;;;;40.60;22.13;;;;;;;;;;4935224;29;20526;-64
2021/01/04 06:36:05;;;;;;;40.57;21.93;;;4.60;99.90;;;;;;4935220;29;20464;-63
2021/01/04 06:38:33;;;;;;;42.50;22.67;;;4.70;99.90;;;;;;4935081;29;20868;-63
2021/01/04 06:41:18;;;;;;;45.93;23.70;;;4.50;99.90;;;;;;4934525;29;20556;-63
2021/01/04 06:43:44;;;;;;;44.70;20.90;;;4.30;99.90;;;;;;4934995;29;20539;-61
2021/01/04 06:46:18;;;;;;;44.13;25.23;;;4.30;99.90;;;;;;4935028;29;20545;-62
2021/01/04 06:48:58;;;;;;;39.63;22.50;;;4.10;99.90;;;;;;4934371;29;21460;-63
2021/01/04 06:51:33;;;;;;;45.40;22.20;;;4.10;99.90;;;;;;4934593;29;20475;-63
2021/01/04 06:54:01;;;;;;;47.23;24.20;;;4.10;99.90;;;;;;4934819;29;20470;-65
2021/01/04 06:56:59;;;;;;;51.67;24.37;;;4.20;99.90;;;;;;4934546;29;20494;-64
2021/01/04 06:59:49;;;;;;;48.23;26.00;;;4.40;99.90;;;;;;4920385;29;20462;-62
2021/01/04 07:02:40;;;;;;;46.33;24.73;;;4.50;99.90;;;;;;4918865;29;20440;-63
2021/01/04 07:05:24;;;;;;;49.87;26.17;;;4.60;99.90;;;;;;4934901;29;20527;-64
2021/01/04 07:08:02;;;;;;;46.67;24.83;;;4.70;99.90;;;;;;4934197;29;20447;-63
2021/01/04 07:10:43;;;;;;;47.17;24.80;;;4.70;99.90;;;;;;4932119;29;20441;-62
2021/01/04 07:13:15;;;;;;;55.57;25.60;;;6.40;99.90;;;;;;4933821;29;20490;-62
2021/01/04 07:16:15;;;;;;;43.23;23.50;;;4.80;99.90;;;;;;4933872;29;20460;-65
2021/01/04 07:18:59;;;;;;;42.87;23.03;;;4.80;99.90;;;;;;4931894;29;20475;-64
2021/01/04 07:21:46;;;;;;;51.60;25.47;;;4.90;99.90;;;;;;4932811;29;20464;-63
2021/01/04 07:24:14;;;;;;;41.43;22.83;;;5.10;99.90;;;;;;4934052;29;20974;-64
2021/01/04 07:27:06;;;;;;;40.13;21.47;;;5.10;99.90;;;;;;4933397;29;20542;-64
2021/01/04 07:30:01;;;;;;;41.70;23.30;;;5.10;99.90;;;;;;4930560;29;20458;-65
2021/01/04 07:32:44;;;;;;;42.50;23.70;;;5.10;99.90;;;;;;4934094;29;20466;-65
2021/01/04 07:35:28;;;;;;;43.80;24.23;;;5.20;99.90;;;;;;4933544;29;20454;-65
2021/01/04 07:38:04;;;;;;;41.53;21.23;;;5.10;99.90;;;;;;4933890;29;21045;-64
2021/01/04 07:41:01;;;;;;;45.37;23.97;;;5.10;99.90;;;;;;4934137;29;20443;-64
2021/01/04 07:43:45;;;;;;;39.17;21.73;;;5.00;99.90;;;;;;4934014;29;20472;-66
2021/01/04 07:46:32;;;;;;;40.80;23.20;;;4.90;99.90;;;;;;4934069;29;20443;-64
2021/01/04 07:49:28;;;;;;;42.33;23.10;;;4.80;99.90;;;;;;4933446;29;20493;-64
2021/01/04 07:52:03;;;;;;;40.07;23.40;;;4.70;99.90;;;;;;4932143;29;20475;-65
2021/01/04 07:54:52;;;;;;;35.90;22.90;;;4.80;99.90;;;;;;4933224;29;20612;-64
2021/01/04 07:57:41;;;;;;;42.87;23.80;;;4.80;99.90;;;;;;4933984;29;20448;-65
2021/01/04 08:00:25;;;;;;;49.07;26.00;;;4.80;99.90;;;;;;4932880;29;20453;-65
2021/01/04 08:02:57;;;;;;;53.83;31.00;;;4.70;99.90;;;;;;4933502;29;20451;-64
2021/01/04 08:05:35;;;;;;;66.53;35.97;;;4.60;99.90;;;;;;4933688;29;20582;-65
2021/01/04 08:08:34;;;;;;;66.67;37.57;;;4.60;99.90;;;;;;4933274;29;20727;-65
2021/01/04 08:11:32;;;;;;;50.43;29.67;;;4.50;99.90;;;;;;4933317;29;20435;-62
2021/01/04 08:14:22;;;;;;;56.23;30.87;;;4.40;99.90;;;;;;4921416;29;20965;-64
2021/01/04 08:17:02;;;;;;;53.00;26.67;;;4.40;99.90;;;;;;4933439;29;20475;-63
2021/01/04 08:19:29;;;;;;;52.60;30.23;;;4.40;99.90;;;;;;4933270;29;20539;-63
2021/01/04 08:22:08;;;;;;;51.83;29.47;;;4.30;99.90;;;;;;4932705;29;20933;-64
2021/01/04 08:24:41;;;;;;;48.30;24.70;;;4.20;99.90;;;;;;4933529;29;20428;-64
2021/01/04 08:27:30;;;;;;;53.87;25.00;;;4.30;99.90;;;;;;4933333;29;20968;-64
2021/01/04 08:30:04;;;;;;;47.53;23.80;;;4.30;99.90;;;;;;4932774;29;20475;-64
2021/01/04 08:32:56;;;;;;;45.73;26.03;;;4.50;99.90;;;;;;4932984;29;20463;-66
2021/01/04 08:35:27;;;;;;;40.00;23.20;;;4.60;99.90;;;;;;4933113;29;20838;-65
2021/01/04 08:37:54;;;;;;;44.43;23.50;;;4.60;99.90;;;;;;4933396;29;20649;-64
2021/01/04 08:40:34;;;;;;;46.43;23.80;;;4.50;99.90;;;;;;4932834;29;20442;-65
2021/01/04 08:43:06;;;;;;;44.40;21.37;;;4.50;99.90;;;;;;4933526;29;20450;-65
2021/01/04 08:45:45;;;;;;;43.77;26.13;;;4.50;99.90;;;;;;4932962;29;20505;-64
2021/01/04 08:48:17;;;;;;;47.13;24.00;;;4.60;99.90;;;;;;4933985;29;20511;-63
2021/01/04 08:50:59;;;;;;;53.83;26.63;;;4.50;99.90;;;;;;4933254;29;20836;-63
2021/01/04 08:53:25;;;;;;;50.47;26.57;;;4.50;99.90;;;;;;4927611;29;20972;-67
2021/01/04 08:55:52;;;;;;;45.33;24.40;;;4.70;99.90;;;;;;4930452;29;20442;-66
2021/01/04 08:58:25;;;;;;;68.03;37.60;;;4.70;99.90;;;;;;4946593;28;20492;-67
2021/01/04 09:01:29;;;;;;;59.20;32.60;;;4.70;99.90;;;;;;4928303;29;20440;-66
2021/01/04 09:04:24;;;;;;;40.93;23.10;;;4.80;99.90;;;;;;4915555;29;20971;-64
2021/01/04 09:07:20;;;;;;;48.90;26.33;;;4.80;99.90;;;;;;4914273;29;20497;-66
2021/01/04 09:10:11;;;;;;;46.53;23.60;;;4.80;99.90;;;;;;4930769;29;20535;-65
2021/01/04 09:12:41;;;;;;;54.30;25.00;;;4.70;99.90;;;;;;4931489;29;20996;-64
2021/01/04 09:15:27;;;;;;;53.47;24.97;;;4.70;99.90;;;;;;4936567;29;20439;-63
2021/01/04 09:18:04;;;;;;;48.50;24.37;;;4.90;99.90;;;;;;4936432;29;20463;-63
2021/01/04 09:21:11;;;;;;;46.60;25.33;;;4.90;99.90;;;;;;4936094;29;20534;-64
2021/01/04 09:23:40;;;;;;;41.93;21.27;;;4.90;99.90;;;;;;4936278;29;20887;-69
2021/01/04 09:26:32;;;;;;;49.30;26.20;;;4.90;99.90;;;;;;4936742;29;20479;-65
2021/01/04 09:29:17;;;;;;;45.67;24.30;;;4.80;99.90;;;;;;4936742;29;20451;-65
2021/01/04 09:31:52;;;;;;;47.67;24.20;;;4.70;99.90;;;;;;4936372;29;20439;-64
2021/01/04 09:34:18;;;;;;;46.67;22.63;;;4.70;99.90;;;;;;4936617;29;20554;-64
2021/01/04 09:36:45;;;;;;;48.17;22.90;;;4.80;99.90;;;;;;4936387;29;20529;-65
2021/01/04 09:39:13;;;;;;;43.40;23.70;;;4.90;99.90;;;;;;4925214;29;20437;-65
2021/01/04 09:41:40;;;;;;;40.40;22.67;;;5.10;99.90;;;;;;4917433;29;20539;-65
2021/01/04 09:44:12;;;;;;;50.60;24.53;;;5.10;99.90;;;;;;4917101;29;20450;-64
2021/01/04 09:46:59;;;;;;;40.93;23.33;;;5.30;99.90;;;;;;4917120;29;20447;-65
2021/01/04 09:49:32;;;;;;;42.37;22.10;;;5.30;99.90;;;;;;4917309;29;20463;-62
2021/01/04 09:52:36;;;;;;;45.57;24.10;;;5.30;99.90;;;;;;4916869;29;20445;-64
2021/01/04 09:55:08;;;;;;;45.80;23.23;;;5.30;99.90;;;;;;4933333;29;20452;-66
2021/01/04 09:57:37;;;;;;;43.63;23.37;;;5.30;99.90;;;;;;4935968;29;20440;-64
2021/01/04 10:00:19;;;;;;;42.70;22.47;;;5.40;99.90;;;;;;4934565;29;20949;-65
2021/01/04 10:02:45;;;;;;;50.67;27.07;;;5.40;99.90;;;;;;4935901;29;20436;-67
2021/01/04 10:05:14;;;;;;;49.77;25.90;;;5.40;99.90;;;;;;4935644;29;20458;-66
2021/01/04 10:07:41;;;;;;;46.90;23.53;;;5.40;99.90;;;;;;4935730;29;20187;-67
2021/01/04 10:10:14;;;;;;;47.90;23.97;;;5.50;99.90;;;;;;4935627;29;20476;-65
2021/01/04 10:12:39;;;;;;;49.00;25.07;;;5.50;99.90;;;;;;4934398;29;20479;-64
2021/01/04 10:15:25;;;;;;;42.53;23.03;;;5.50;99.90;;;;;;4934243;29;20506;-65
2021/01/04 10:18:17;;;;;;;48.20;26.00;;;5.60;99.90;;;;;;4935400;29;20607;-65
2021/01/04 10:20:50;;;;;;;46.57;24.50;;;5.70;99.90;;;;;;4935540;29;20437;-65
2021/01/04 10:23:40;;;;;;;50.40;22.40;;;5.60;99.90;;;;;;4935289;29;20475;-66
2021/01/04 10:26:09;;;;;;;45.50;23.50;;;5.50;99.90;;;;;;4935317;29;20444;-65
2021/01/04 10:28:38;;;;;;;48.20;24.00;;;5.70;99.90;;;;;;4935166;29;20436;-64
2021/01/04 10:31:17;;;;;;;41.50;22.20;;;5.60;99.90;;;;;;4935152;29;20503;-64
2021/01/04 10:33:43;;;;;;;39.07;23.50;;;5.60;99.90;;;;;;4931882;29;20472;-69
2021/01/04 10:36:15;;;;;;;49.17;26.57;;;5.50;99.90;;;;;;4935104;29;20444;-65
2021/01/04 10:39:03;;;;;;;46.27;25.53;;;5.40;99.90;;;;;;4934762;29;20183;-63
2021/01/04 10:41:31;;;;;;;39.00;21.70;;;5.40;99.90;;;;;;4931458;29;20447;-64
2021/01/04 10:44:24;;;;;;;43.90;25.37;;;5.50;99.90;;;;;;4934856;29;20440;-67
2021/01/04 10:47:16;;;;;;;42.90;24.67;;;5.60;99.90;;;;;;4933489;29;20540;-64
2021/01/04 10:49:42;;;;;;;42.90;25.60;;;5.60;99.90;;;;;;4934309;29;20444;-66
2021/01/04 10:52:22;;;;;;;42.53;24.73;;;5.50;99.90;;;;;;4934644;29;20490;-64
2021/01/04 10:54:48;;;;;;;40.13;21.53;;;5.10;99.90;;;;;;4934899;29;20220;-65
2021/01/04 10:57:21;;;;;;;41.10;24.07;;;5.10;99.90;;;;;;4934689;29;20494;-66
2021/01/04 11:00:06;;;;;;;38.70;19.93;;;5.10;99.90;;;;;;4934750;29;20441;-67
2021/01/04 11:02:43;;;;;;;41.07;20.50;;;5.10;99.90;;;;;;4933968;29;20456;-64
2021/01/04 11:05:10;;;;;;;38.13;21.60;;;5.20;99.90;;;;;;4933259;29;20446;-66
2021/01/04 11:07:36;;;;;;;39.10;22.80;;;5.20;99.90;;;;;;4934471;29;20574;-66
2021/01/04 11:10:11;;;;;;;39.00;21.60;;;5.30;99.90;;;;;;4933028;29;20448;-64
2021/01/04 11:12:49;;;;;;;41.13;22.50;;;5.10;99.90;;;;;;4934153;29;20471;-66
2021/01/04 11:15:34;;;;;;;43.50;22.37;;;5.10;99.90;;;;;;4933507;29;20443;-66
2021/01/04 11:18:01;;;;;;;40.67;22.83;;;5.20;99.90;;;;;;4934276;29;20546;-65
2021/01/04 11:20:27;;;;;;;41.63;22.83;;;5.20;99.90;;;;;;4918764;29;20898;-64
2021/01/04 11:23:00;;;;;;;44.03;23.20;;;5.20;99.90;;;;;;4914237;29;20481;-65
2021/01/04 11:25:26;;;;;;;44.93;23.37;;;5.20;99.90;;;;;;4934361;29;20692;-66
2021/01/04 11:27:51;;;;;;;44.97;22.90;;;5.20;99.90;;;;;;4932761;29;20475;-65
2021/01/04 11:30:17;;;;;;;46.97;24.80;;;5.40;99.90;;;;;;4932688;29;20184;-64
2021/01/04 11:32:43;;;;;;;52.63;26.17;;;5.40;99.90;;;;;;4932349;29;20241;-63
2021/01/04 11:35:09;;;;;;;43.50;23.40;;;5.20;99.90;;;;;;4932489;29;20448;-66
2021/01/04 11:37:34;;;;;;;47.37;25.13;;;4.90;99.90;;;;;;4933956;29;20535;-64
2021/01/04 11:40:00;;;;;;;49.50;24.20;;;4.80;99.90;;;;;;4933811;29;20453;-65
2021/01/04 11:42:26;;;;;;;49.70;26.27;;;5.00;99.90;;;;;;4933778;29;20191;-65
2021/01/04 11:44:51;;;;;;;49.30;23.67;;;5.00;99.90;;;;;;4933737;29;20230;-67
2021/01/04 11:47:18;;;;;;;41.90;21.73;;;5.10;99.90;;;;;;4933468;29;20202;-67
2021/01/04 11:49:43;;;;;;;44.70;22.77;;;5.20;99.90;;;;;;4933675;29;20686;-65
2021/01/04 11:52:10;;;;;;;53.80;23.67;;;5.40;99.90;;;;;;4933839;29;20450;-67
2021/01/04 11:54:40;;;;;;;48.57;24.37;;;5.10;99.90;;;;;;4929899;29;20347;-67
2021/01/04 11:57:06;;;;;;;42.10;22.10;;;5.40;99.90;;;;;;4933539;29;20956;-64
2021/01/04 11:59:33;;;;;;;58.63;28.50;;;5.50;99.90;;;;;;4933569;29;20435;-66
2021/01/04 12:01:59;;;;;;;59.47;28.90;;;5.50;99.90;;;;;;4932112;29;20189;-66
2021/01/04 12:04:25;;;;;;;58.47;27.50;;;5.40;99.90;;;;;;4933474;29;20491;-67
2021/01/04 12:06:50;;;;;;;64.53;32.73;;;5.30;99.90;;;;;;4933758;29;20203;-66
2021/01/04 12:09:17;;;;;;;49.83;27.37;;;5.20;99.90;;;;;;4933448;29;20212;-67
2021/01/04 12:11:43;;;;;;;43.87;24.07;;;6.30;99.90;;;;;;4933415;29;20569;-66
2021/01/04 12:14:09;;;;;;;56.37;24.93;;;5.30;99.90;;;;;;4931764;29;20666;-66
2021/01/04 12:16:36;;;;;;;48.50;23.03;;;5.40;99.90;;;;;;4932678;29;20188;-64
2021/01/04 12:19:04;;;;;;;47.17;23.77;;;5.30;99.90;;;;;;4929321;29;20443;-65
2021/01/04 12:21:29;;;;;;;43.93;23.93;;;5.20;99.90;;;;;;4932942;29;20526;-64
2021/01/04 12:23:55;;;;;;;43.77;22.20;;;5.10;99.90;;;;;;4933085;29;21024;-67
2021/01/04 12:26:22;;;;;;;50.87;23.50;;;5.10;99.90;;;;;;4933277;29;20184;-66
2021/01/04 12:28:48;;;;;;;49.27;23.20;;;5.10;99.90;;;;;;4932003;29;20705;-65
2021/01/04 12:31:15;;;;;;;54.40;26.53;;;5.20;99.90;;;;;;4932963;29;20436;-65
2021/01/04 12:33:40;;;;;;;48.63;25.00;;;5.30;99.90;;;;;;4933116;29;20895;-67
2021/01/04 12:36:13;;;;;;;52.40;25.40;;;5.30;99.90;;;;;;4933031;29;20448;-65
2021/01/04 12:38:39;;;;;;;54.80;22.80;;;5.40;99.90;;;;;;4963847;28;20176;-64
2021/01/04 12:41:04;;;;;;;46.17;23.83;;;5.40;99.90;;;;;;4933210;29;20789;-66
2021/01/04 12:43:30;;;;;;;51.70;24.00;;;5.30;99.90;;;;;;4932938;29;20211;-64
2021/01/04 12:45:55;;;;;;;49.43;25.40;;;5.30;99.90;;;;;;4933167;29;20201;-66
2021/01/04 12:48:21;;;;;;;46.77;22.90;;;5.30;99.90;;;;;;4925186;29;20187;-68
2021/01/04 12:50:47;;;;;;;56.67;25.93;;;5.30;99.90;;;;;;4932661;29;20937;-65
2021/01/04 12:53:12;;;;;;;57.83;27.40;;;5.40;99.90;;;;;;4932673;29;20219;-64
2021/01/04 12:55:38;;;;;;;53.97;24.63;;;5.40;99.90;;;;;;4932834;29;20220;-65
2021/01/04 12:58:06;;;;;;;51.30;25.97;;;5.40;99.90;;;;;;4933080;29;20188;-66
2021/01/04 13:00:34;;;;;;;55.90;27.73;;;5.30;99.90;;;;;;4933055;29;20573;-65
2021/01/04 13:03:01;;;;;;;42.50;25.90;;;5.30;99.90;;;;;;4932960;29;20527;-67
2021/01/04 13:05:27;;;;;;;50.53;22.90;;;5.10;99.90;;;;;;4932920;29;20522;-65
2021/01/04 13:07:53;;;;;;;44.03;23.53;;;5.10;99.90;;;;;;4932796;29;20527;-65
2021/01/04 13:10:18;;;;;;;45.97;26.57;;;5.00;99.90;;;;;;4932643;29;20571;-64
2021/01/04 13:12:44;;;;;;;48.30;25.10;;;5.00;99.90;;;;;;4932461;29;20229;-65
2021/01/04 13:15:10;;;;;;;46.20;24.57;;;5.10;99.90;;;;;;4931898;29;20289;-65
2021/01/04 13:17:36;;;;;;;44.73;23.07;;;4.90;99.90;;;;;;4932560;29;20195;-64
2021/01/04 13:20:04;;;;;;;49.80;22.63;;;4.80;99.90;;;;;;4930984;29;20436;-66
2021/01/04 13:22:30;;;;;;;49.17;25.30;;;4.80;99.90;;;;;;4932493;29;20794;-60
2021/01/04 13:24:57;;;;;;;46.20;21.80;;;4.90;99.90;;;;;;4931652;29;20446;-63
2021/01/04 13:27:23;;;;;;;49.50;24.53;;;4.90;99.90;;;;;;4931358;29;20198;-63